createdAt,value
2019-05-10T00:01:32.071Z,99932.85
2019-05-10T00:04:18.865Z,99932.45
2019-05-10T00:07:05.489Z,99931.20
2019-05-10T00:09:33.975Z,99939.87
2019-05-10T00:12:14.941Z,99940.78
2019-05-10T00:14:51.764Z,99934.71
2019-05-10T00:17:21.959Z,99942.95
2019-05-10T00:19:50.815Z,99937.78
2019-05-10T00:22:20.342Z,99936.92
2019-05-10T00:25:03.176Z,99940.42
2019-05-10T00:27:19.700Z,99938.70
2019-05-10T00:29:48.426Z,99936.56
2019-05-10T00:32:17.450Z,99938.72
2019-05-10T00:34:46.139Z,99942.63
2019-05-10T00:37:15.116Z,99942.18
2019-05-10T00:39:44.521Z,99939.17
2019-05-10T00:42:13.515Z,99950.91
2019-05-10T00:44:42.431Z,99953.95
2019-05-10T00:47:11.391Z,99954.86
2019-05-10T00:49:40.101Z,99964.38
2019-05-10T00:52:08.840Z,99972.18
2019-05-10T00:54:37.430Z,99978.65
2019-05-10T00:57:06.128Z,99977.31
2019-05-10T00:59:34.780Z,99975.56
2019-05-10T01:02:03.481Z,99974.22
2019-05-10T01:04:32.410Z,99969.41
2019-05-10T01:07:01.089Z,99965.09
2019-05-10T01:09:29.704Z,99971.13
2019-05-10T01:11:58.654Z,99978.08
2019-05-10T01:14:27.570Z,99972.03
2019-05-10T01:16:56.777Z,99969.44
2019-05-10T01:19:25.658Z,99976.33
2019-05-10T01:21:54.550Z,99972.92
2019-05-10T01:24:24.159Z,99970.31
2019-05-10T01:26:52.788Z,99974.67
2019-05-10T01:29:22.149Z,99959.93
2019-05-10T01:31:50.777Z,99960.80
2019-05-10T01:34:20.027Z,99963.43
2019-05-10T01:36:49.016Z,99967.80
2019-05-10T01:39:17.913Z,99960.06
2019-05-10T01:41:47.210Z,99965.70
2019-05-10T01:44:16.123Z,99971.33
2019-05-10T01:46:44.733Z,99966.58
2019-05-10T01:49:13.783Z,99964.84
2019-05-10T01:51:42.792Z,99967.42
2019-05-10T01:54:11.668Z,99957.46
2019-05-10T01:56:40.970Z,99964.34
2019-05-10T01:59:09.968Z,99965.20
2019-05-10T02:01:39.267Z,99957.84
2019-05-10T02:04:08.364Z,99962.59
2019-05-10T02:06:37.010Z,99962.16
2019-05-10T02:09:07.351Z,99964.33
2019-05-10T02:11:38.155Z,99966.08
2019-05-10T02:14:06.780Z,99968.69
2019-05-10T02:16:35.668Z,99969.11
2019-05-10T02:19:04.404Z,99965.20
2019-05-10T02:21:33.371Z,99959.19
2019-05-10T02:24:02.259Z,99959.58
2019-05-10T02:26:31.322Z,99960.41
2019-05-10T02:29:00.552Z,99967.78
2019-05-10T02:31:29.850Z,99966.52
2019-05-10T02:33:59.053Z,99966.52
2019-05-10T02:36:27.760Z,99966.48
2019-05-10T02:38:56.740Z,99971.67
2019-05-10T02:41:25.929Z,99975.50
2019-05-10T02:43:55.234Z,99969.00
2019-05-10T02:46:23.873Z,99966.38
2019-05-10T02:48:52.808Z,99973.75
2019-05-10T02:51:21.439Z,99973.76
2019-05-10T02:53:50.091Z,99973.33
2019-05-10T02:56:30.210Z,99973.81
2019-05-10T02:58:49.917Z,99988.92
2019-05-10T03:01:21.038Z,99975.95
2019-05-10T03:03:51.465Z,99979.41
2019-05-10T03:06:20.530Z,99975.50
2019-05-10T03:08:51.529Z,99972.91
2019-05-10T03:11:20.296Z,99976.42
2019-05-10T03:13:51.649Z,99979.89
2019-05-10T03:16:22.606Z,99980.36
2019-05-10T03:18:52.811Z,99978.61
2019-05-10T03:21:23.043Z,99988.11
2019-05-10T03:23:52.465Z,99985.09
2019-05-10T03:26:21.442Z,99986.82
2019-05-10T03:28:50.171Z,99980.33
2019-05-10T03:31:19.434Z,99985.92
2019-05-10T03:33:55.805Z,99984.61
2019-05-10T03:36:18.470Z,99983.72
2019-05-10T03:38:47.544Z,99985.00
2019-05-10T03:41:16.855Z,99993.66
2019-05-10T03:43:45.831Z,99990.60
2019-05-10T03:46:14.560Z,99987.55
2019-05-10T03:48:43.494Z,99988.85
2019-05-10T03:51:12.402Z,99991.88
2019-05-10T03:53:41.026Z,99982.30
2019-05-10T03:56:09.976Z,99976.23
2019-05-10T03:58:38.971Z,99973.63
2019-05-10T04:01:07.607Z,99981.36
2019-05-10T04:03:39.617Z,99976.15
2019-05-10T04:06:08.664Z,99981.30
2019-05-10T04:08:37.713Z,99978.17
2019-05-10T04:11:06.343Z,99981.09
2019-05-10T04:13:35.014Z,99984.97
2019-05-10T04:16:03.642Z,99990.94
2019-05-10T04:18:32.647Z,99991.38
2019-05-10T04:21:01.864Z,99994.83
2019-05-10T04:23:30.878Z,99998.79
2019-05-10T04:25:59.847Z,100004.95
2019-05-10T04:28:29.161Z,100005.47
2019-05-10T04:30:57.824Z,100010.66
2019-05-10T04:33:27.164Z,100010.23
2019-05-10T04:35:55.751Z,100011.11
2019-05-10T04:38:24.527Z,100013.61
2019-05-10T04:40:53.807Z,100015.86
2019-05-10T04:43:22.708Z,100016.72
2019-05-10T04:45:51.719Z,100023.66
2019-05-10T04:48:20.370Z,100034.95
2019-05-10T04:50:49.688Z,100028.94
2019-05-10T04:53:18.597Z,100034.11
2019-05-10T04:55:47.879Z,100033.69
2019-05-10T04:58:16.483Z,100035.36
2019-05-10T05:00:45.482Z,100036.23
2019-05-10T05:03:14.125Z,100034.94
2019-05-10T05:05:42.764Z,100033.99
2019-05-10T05:08:12.133Z,100030.55
2019-05-10T05:10:41.539Z,100034.84
2019-05-10T05:13:10.419Z,100030.48
2019-05-10T05:15:39.909Z,100027.83
2019-05-10T05:18:08.921Z,100027.77
2019-05-10T05:20:37.809Z,100031.22
2019-05-10T05:23:06.459Z,100031.62
2019-05-10T05:25:40.195Z,100032.48
2019-05-10T05:28:08.409Z,100036.80
2019-05-10T05:30:38.887Z,100033.70
2019-05-10T05:33:08.102Z,100042.28
2019-05-10T05:35:36.815Z,100040.42
2019-05-10T05:38:05.787Z,100047.98
2019-05-10T05:40:34.423Z,100045.19
2019-05-10T05:43:08.252Z,100052.73
2019-05-10T05:45:35.617Z,100056.72
2019-05-10T05:48:04.316Z,100055.67
2019-05-10T05:50:33.212Z,100061.25
2019-05-10T05:53:01.892Z,100059.86
2019-05-10T05:55:32.194Z,100053.61
2019-05-10T05:58:04.887Z,100050.02
2019-05-10T06:00:37.725Z,100058.34
2019-05-10T06:03:02.280Z,100057.75
2019-05-10T06:05:34.631Z,100062.36
2019-05-10T06:08:01.766Z,100065.44
2019-05-10T06:10:31.099Z,100064.86
2019-05-10T06:12:59.814Z,100062.52
2019-05-10T06:15:31.122Z,100071.03
2019-05-10T06:18:03.354Z,100077.56
2019-05-10T06:20:30.438Z,100074.57
2019-05-10T06:23:06.286Z,100082.95
2019-05-10T06:25:39.436Z,100071.85
2019-05-10T06:28:01.297Z,100080.55
2019-05-10T06:30:30.319Z,100071.39
2019-05-10T06:33:03.501Z,100080.38
2019-05-10T06:35:30.836Z,100080.72
2019-05-10T06:38:00.149Z,100078.55
2019-05-10T06:40:35.593Z,100074.98
2019-05-10T06:42:59.596Z,100081.33
2019-05-10T06:45:28.582Z,100088.43
2019-05-10T06:47:57.216Z,100086.48
2019-05-10T06:50:29.961Z,100094.12
2019-05-10T06:53:00.529Z,100093.78
2019-05-10T06:55:28.343Z,100096.94
2019-05-10T06:58:00.587Z,100097.67
2019-05-10T07:00:27.659Z,100099.58
2019-05-10T07:02:56.655Z,100105.68
2019-05-10T07:05:25.349Z,100112.31
2019-05-10T07:08:00.674Z,100106.64
2019-05-10T07:10:25.629Z,100112.47
2019-05-10T07:12:56.983Z,100118.22
2019-05-10T07:15:25.517Z,100113.79
2019-05-10T07:17:54.506Z,100105.98
2019-05-10T07:20:29.124Z,100093.86
2019-05-10T07:22:53.870Z,100112.30
2019-05-10T07:25:22.508Z,100108.48
2019-05-10T07:27:52.023Z,100107.07
2019-05-10T07:30:30.802Z,100119.64
2019-05-10T07:33:02.003Z,100119.05
2019-05-10T07:35:36.343Z,100110.68
2019-05-10T07:38:01.225Z,100113.67
2019-05-10T07:40:30.246Z,100122.61
2019-05-10T07:42:59.517Z,100131.34
2019-05-10T07:45:28.225Z,100139.25
2019-05-10T07:47:57.196Z,100135.50
2019-05-10T07:50:25.846Z,100133.66
2019-05-10T07:52:54.548Z,100140.09
2019-05-10T07:55:28.363Z,100149.03
2019-05-10T07:57:53.604Z,100142.37
2019-05-10T08:00:25.299Z,100140.20
2019-05-10T08:03:02.822Z,100143.62
2019-05-10T08:05:23.325Z,100159.55
2019-05-10T08:07:52.299Z,100158.14
2019-05-10T08:10:21.565Z,100166.13
2019-05-10T08:12:50.461Z,100159.70
2019-05-10T08:15:19.692Z,100164.58
2019-05-10T08:17:50.993Z,100159.50
2019-05-10T08:20:30.705Z,100169.48
2019-05-10T08:22:52.574Z,100171.12
2019-05-10T08:25:22.967Z,100175.87
2019-05-10T08:27:55.253Z,100180.56
2019-05-10T08:30:35.776Z,100192.45
2019-05-10T08:33:09.350Z,100186.89
2019-05-10T08:35:38.245Z,100194.14
2019-05-10T08:38:06.019Z,100195.08
2019-05-10T08:40:37.849Z,100196.64
2019-05-10T08:43:08.961Z,100202.84
2019-05-10T08:45:38.628Z,100208.14
2019-05-10T08:48:07.199Z,100207.29
2019-05-10T08:50:49.577Z,100209.02
2019-05-10T08:53:10.727Z,100220.66
2019-05-10T08:55:37.288Z,100220.59
2019-05-10T08:58:06.191Z,100220.11
2019-05-10T09:00:49.320Z,100220.43
2019-05-10T09:03:09.267Z,100222.80
2019-05-10T09:05:39.482Z,100226.16
2019-05-10T09:08:11.661Z,100232.81
2019-05-10T09:10:37.379Z,100230.45
2019-05-10T09:13:06.081Z,100237.20
2019-05-10T09:15:34.740Z,100246.55
2019-05-10T09:18:07.357Z,100240.30
2019-05-10T09:20:33.797Z,100239.43
2019-05-10T09:23:02.886Z,100252.36
2019-05-10T09:25:33.733Z,100253.20
2019-05-10T09:28:10.675Z,100257.13
2019-05-10T09:30:35.645Z,100255.12
2019-05-10T09:33:08.660Z,100249.09
2019-05-10T09:35:38.995Z,100254.02
2019-05-10T09:38:06.562Z,100263.59
2019-05-10T09:40:42.518Z,100268.36
2019-05-10T09:43:09.675Z,100271.11
2019-05-10T09:45:36.005Z,100272.83
2019-05-10T09:48:04.996Z,100278.70
2019-05-10T09:50:41.332Z,100279.34
2019-05-10T09:53:06.731Z,100288.17
2019-05-10T09:55:36.933Z,100289.44
2019-05-10T09:58:08.430Z,100288.69
2019-05-10T10:00:38.168Z,100291.37
2019-05-10T10:03:08.424Z,100293.66
2019-05-10T10:05:39.896Z,100300.19
2019-05-10T10:08:08.996Z,100295.94
2019-05-10T10:10:38.062Z,100305.50
2019-05-10T10:13:13.724Z,100296.09
2019-05-10T10:15:37.506Z,100300.69
2019-05-10T10:18:06.637Z,100301.91
2019-05-10T10:20:43.002Z,100311.48
2019-05-10T10:23:07.330Z,100316.58
2019-05-10T10:25:40.818Z,100313.48
2019-05-10T10:28:16.734Z,100310.76
2019-05-10T10:30:38.394Z,100318.47
2019-05-10T10:33:11.516Z,100319.00
2019-05-10T10:35:38.184Z,100317.47
2019-05-10T10:38:08.113Z,100327.14
2019-05-10T10:40:44.179Z,100326.20
2019-05-10T10:43:08.151Z,100328.69
2019-05-10T10:45:37.802Z,100332.67
2019-05-10T10:48:08.558Z,100329.70
2019-05-10T10:50:37.191Z,100343.13
2019-05-10T10:53:07.982Z,100335.70
2019-05-10T10:55:40.016Z,100338.28
2019-05-10T10:58:07.742Z,100339.94
2019-05-10T11:00:38.881Z,100334.23
2019-05-10T11:03:07.713Z,100340.23
2019-05-10T11:05:36.707Z,100336.21
2019-05-10T11:08:06.101Z,100335.91
2019-05-10T11:10:35.064Z,100343.50
2019-05-10T11:13:11.959Z,100346.41
2019-05-10T11:15:36.332Z,100341.59
2019-05-10T11:18:05.118Z,100353.92
2019-05-10T11:20:33.751Z,100344.61
2019-05-10T11:23:02.703Z,100346.14
2019-05-10T11:25:32.005Z,100355.80
2019-05-10T11:28:01.922Z,100347.78
2019-05-10T11:30:32.552Z,100350.75
2019-05-10T11:33:01.842Z,100358.55
2019-05-10T11:35:33.831Z,100350.50
2019-05-10T11:38:01.353Z,100357.10
2019-05-10T11:40:32.660Z,100360.06
2019-05-10T11:43:01.501Z,100362.55
2019-05-10T11:45:34.361Z,100368.50
2019-05-10T11:48:02.178Z,100366.65
2019-05-10T11:50:35.134Z,100369.06
2019-05-10T11:53:06.999Z,100374.41
2019-05-10T11:55:35.322Z,100374.95
2019-05-10T11:58:08.908Z,100384.43
2019-05-10T12:00:34.529Z,100386.44
2019-05-10T12:03:11.431Z,100397.14
2019-05-10T12:05:34.043Z,100400.48
2019-05-10T12:08:03.019Z,100402.31
2019-05-10T12:10:32.156Z,100413.39
2019-05-10T12:13:11.303Z,100418.42
2019-05-10T12:15:32.055Z,100419.22
2019-05-10T12:18:04.703Z,100419.80
2019-05-10T12:20:41.285Z,100430.47
2019-05-10T12:23:03.399Z,100427.61
2019-05-10T12:26:30.550Z,100427.14
2019-05-10T12:28:03.104Z,100424.09
2019-05-10T12:30:34.875Z,100416.29
2019-05-10T12:33:08.017Z,100414.16
2019-05-10T12:35:39.742Z,100418.87
2019-05-10T12:38:04.382Z,100418.31
2019-05-10T12:40:33.083Z,100414.86
2019-05-10T12:43:02.031Z,100423.05
2019-05-10T12:45:31.412Z,100419.29
2019-05-10T12:48:01.267Z,100424.77
2019-05-10T12:50:30.348Z,100439.15
2019-05-10T12:53:10.165Z,100446.42
2019-05-10T12:55:30.283Z,100451.28
2019-05-10T12:57:58.948Z,100454.52
2019-05-10T13:00:27.968Z,100460.27
2019-05-10T13:03:11.593Z,100455.66
2019-05-10T13:05:32.175Z,100456.41
2019-05-10T13:07:58.225Z,100458.22
2019-05-10T13:10:27.013Z,100456.66
2019-05-10T13:12:56.518Z,100463.20
2019-05-10T13:15:31.216Z,100466.47
2019-05-10T13:17:56.450Z,100467.52
2019-05-10T13:20:25.465Z,100474.09
2019-05-10T13:22:54.095Z,100474.30
2019-05-10T13:25:22.768Z,100474.59
2019-05-10T13:27:52.017Z,100477.07
2019-05-10T13:30:27.520Z,100477.34
2019-05-10T13:32:58.408Z,100481.23
2019-05-10T13:35:23.877Z,100481.72
2019-05-10T13:37:56.838Z,100480.77
2019-05-10T13:40:23.766Z,100474.09
2019-05-10T13:42:52.736Z,100478.47
2019-05-10T13:45:21.436Z,100481.84
2019-05-10T13:47:50.045Z,100482.39
2019-05-10T13:50:27.320Z,100482.19
2019-05-10T13:52:56.286Z,100483.95
2019-05-10T13:55:24.955Z,100487.45
2019-05-10T13:57:54.211Z,100492.05
2019-05-10T14:00:33.150Z,100495.85
2019-05-10T14:02:53.798Z,100490.89
2019-05-10T14:05:22.692Z,100497.87
2019-05-10T14:07:53.138Z,100499.36
2019-05-10T14:10:25.212Z,100502.86
2019-05-10T14:12:56.186Z,100502.39
2019-05-10T14:15:24.950Z,100516.66
2019-05-10T14:17:53.923Z,100523.51
2019-05-10T14:20:27.672Z,100528.09
2019-05-10T14:22:55.911Z,100540.41
2019-05-10T14:25:23.826Z,100537.24
2019-05-10T14:27:54.519Z,100552.45
2019-05-10T14:30:23.210Z,100550.32
2019-05-10T14:32:52.166Z,100556.66
2019-05-10T14:35:22.481Z,100558.83
2019-05-10T14:37:52.094Z,100552.47
2019-05-10T14:40:27.952Z,100556.92
2019-05-10T14:42:51.625Z,100567.05
2019-05-10T14:45:20.371Z,100579.73
2019-05-10T14:47:50.518Z,100584.20
2019-05-10T14:50:26.191Z,100581.67
2019-05-10T14:52:50.730Z,100589.52
2019-05-10T14:55:19.967Z,100599.07
2019-05-10T14:57:48.877Z,100593.88
2019-05-10T15:00:18.158Z,100601.25
2019-05-10T15:02:46.982Z,100602.11
2019-05-10T15:05:18.115Z,100626.07
2019-05-10T15:07:46.679Z,100622.30
2019-05-10T15:10:15.668Z,100627.61
2019-05-10T15:12:44.665Z,100627.21
2019-05-10T15:15:13.657Z,100628.56
2019-05-10T15:17:43.015Z,100629.86
2019-05-10T15:20:12.319Z,100632.02
2019-05-10T15:22:41.513Z,100636.42
2019-05-10T15:25:10.554Z,100638.99
2019-05-10T15:27:39.577Z,100642.89
2019-05-10T15:30:08.620Z,100646.73
2019-05-10T15:32:37.635Z,100648.92
2019-05-10T15:35:08.583Z,100648.06
2019-05-10T15:37:40.731Z,100650.66
2019-05-10T15:40:08.751Z,100652.41
2019-05-10T15:42:38.538Z,100655.43
2019-05-10T15:45:12.293Z,100656.68
2019-05-10T15:47:50.476Z,100662.35
2019-05-10T15:50:09.708Z,100663.64
2019-05-10T15:52:45.501Z,100673.16
2019-05-10T15:55:09.073Z,100667.50
2019-05-10T15:57:37.745Z,100667.08
2019-05-10T16:00:06.519Z,100674.88
2019-05-10T16:02:35.196Z,100673.95
2019-05-10T16:05:22.988Z,100679.16
2019-05-10T16:07:35.326Z,100680.47
2019-05-10T16:10:04.736Z,100681.30
2019-05-10T16:12:37.920Z,100687.85
2019-05-10T16:15:04.773Z,100692.59
2019-05-10T16:17:33.411Z,100691.30
2019-05-10T16:20:02.065Z,100695.63
2019-05-10T16:22:32.039Z,100696.45
2019-05-10T16:25:02.836Z,100699.02
2019-05-10T16:27:33.969Z,100702.50
2019-05-10T16:30:02.867Z,100705.14
2019-05-10T16:32:34.412Z,100702.97
2019-05-10T16:35:05.589Z,100712.05
2019-05-10T16:37:32.646Z,100714.64
2019-05-10T16:40:02.126Z,100720.24
2019-05-10T16:42:34.661Z,100724.64
2019-05-10T16:45:01.306Z,100722.06
2019-05-10T16:47:30.404Z,100731.64
2019-05-10T16:49:59.690Z,100729.93
2019-05-10T16:52:28.651Z,100737.29
2019-05-10T16:55:03.661Z,100738.18
2019-05-10T16:57:31.993Z,100737.80
2019-05-10T17:00:01.984Z,100745.59
2019-05-10T17:02:29.610Z,100744.73
2019-05-10T17:04:58.980Z,100742.96
2019-05-10T17:07:28.287Z,100750.83
2019-05-10T17:09:56.910Z,100760.80
2019-05-10T17:12:27.712Z,100760.38
2019-05-10T17:15:02.318Z,100763.84
2019-05-10T17:17:31.430Z,100765.13
2019-05-10T17:19:58.731Z,100762.94
2019-05-10T17:22:28.106Z,100769.03
2019-05-10T17:25:02.853Z,100776.44
2019-05-10T17:27:27.395Z,100780.80
2019-05-10T17:29:56.026Z,100779.94
2019-05-10T17:32:26.677Z,100780.39
2019-05-10T17:34:59.171Z,100783.43
2019-05-10T17:37:29.789Z,100783.44
2019-05-10T17:39:57.181Z,100783.45
2019-05-10T17:42:26.170Z,100782.58
2019-05-10T17:45:01.943Z,100779.97
2019-05-10T17:47:27.179Z,100789.08
2019-05-10T17:49:57.040Z,100788.22
2019-05-10T17:52:25.936Z,100783.88
2019-05-10T17:54:55.127Z,100789.11
2019-05-10T17:57:23.739Z,100792.55
2019-05-10T17:59:54.510Z,100797.77
2019-05-10T18:02:22.723Z,100798.64
2019-05-10T18:04:51.619Z,100795.17
2019-05-10T18:07:20.271Z,100806.88
2019-05-10T18:09:50.318Z,100807.74
2019-05-10T18:12:20.328Z,100813.84
2019-05-10T18:14:50.205Z,100812.95
2019-05-10T18:17:20.831Z,100817.75
2019-05-10T18:19:50.844Z,100824.69
2019-05-10T18:22:19.454Z,100829.44
2019-05-10T18:24:48.096Z,100833.37
2019-05-10T18:27:17.076Z,100832.08
2019-05-10T18:29:45.954Z,100838.14
2019-05-10T18:32:14.951Z,100837.27
2019-05-10T18:34:46.977Z,100837.27
2019-05-10T18:37:15.751Z,100845.50
2019-05-10T18:39:47.213Z,100843.34
2019-05-10T18:42:18.918Z,100845.49
2019-05-10T18:44:52.029Z,100849.41
2019-05-10T18:47:16.529Z,100840.73
2019-05-10T18:49:45.183Z,100852.88
2019-05-10T18:52:13.852Z,100855.48
2019-05-10T18:54:42.753Z,100850.71
2019-05-10T18:57:18.842Z,100854.19
2019-05-10T18:59:45.547Z,100852.89
2019-05-10T19:02:17.792Z,100852.86
2019-05-10T19:04:45.661Z,100852.42
2019-05-10T19:07:14.811Z,100857.66
2019-05-10T19:09:44.088Z,100860.18
2019-05-10T19:12:18.615Z,100864.55
2019-05-10T19:14:43.726Z,100871.52
2019-05-10T19:17:12.381Z,100874.98
2019-05-10T19:19:42.298Z,100876.72
2019-05-10T19:22:11.823Z,100879.32
2019-05-10T19:24:40.733Z,100886.62
2019-05-10T19:27:09.641Z,100876.66
2019-05-10T19:29:45.376Z,100883.16
2019-05-10T19:32:11.398Z,100887.93
2019-05-10T19:34:39.297Z,100884.89
2019-05-10T19:37:07.940Z,100887.49
2019-05-10T19:39:36.946Z,100887.02
2019-05-10T19:42:06.224Z,100883.12
2019-05-10T19:44:40.366Z,100892.26
2019-05-10T19:47:05.492Z,100892.66
2019-05-10T19:49:34.562Z,100891.73
2019-05-10T19:52:03.195Z,100891.30
2019-05-10T19:54:32.120Z,100889.47
2019-05-10T19:57:01.729Z,100898.52
2019-05-10T19:59:30.744Z,100897.36
2019-05-10T20:01:59.359Z,100893.86
2019-05-10T20:04:28.621Z,100896.06
2019-05-10T20:06:57.500Z,100897.75
2019-05-10T20:09:26.431Z,100896.06
2019-05-10T20:11:55.692Z,100898.08
2019-05-10T20:14:24.683Z,100904.52
2019-05-10T20:16:53.708Z,100901.91
2019-05-10T20:19:22.448Z,100910.51
2019-05-10T20:21:51.328Z,100904.41
2019-05-10T20:24:20.558Z,100914.72
2019-05-10T20:26:49.445Z,100906.94
2019-05-10T20:29:18.096Z,100904.70
2019-05-10T20:31:50.545Z,100915.59
2019-05-10T20:34:19.437Z,100915.48
2019-05-10T20:36:49.436Z,100914.86
2019-05-10T20:39:18.615Z,100919.06
2019-05-10T20:41:47.441Z,100919.58
2019-05-10T20:44:18.041Z,100922.64
2019-05-10T20:46:47.544Z,100929.05
2019-05-10T20:49:16.544Z,100931.20
2019-05-10T20:51:45.277Z,100931.19
2019-05-10T20:54:40.183Z,100937.33
2019-05-10T20:57:00.716Z,100933.35
2019-05-10T20:59:29.821Z,100930.65
2019-05-10T21:01:58.810Z,100932.27
2019-05-10T21:04:28.622Z,100932.31
2019-05-10T21:06:57.603Z,100933.11
2019-05-10T21:09:26.814Z,100934.38
2019-05-10T21:11:56.012Z,100937.11
2019-05-10T21:14:24.890Z,100930.45
2019-05-10T21:16:54.165Z,100940.98
2019-05-10T21:19:22.701Z,100945.56
2019-05-10T21:21:52.169Z,100951.98
2019-05-10T21:24:20.915Z,100948.42
2019-05-10T21:26:49.983Z,100943.89
2019-05-10T21:29:18.986Z,100945.94
2019-05-10T21:31:48.294Z,100948.80
2019-05-10T21:34:17.260Z,100949.69
2019-05-10T21:36:45.898Z,100950.55
2019-05-10T21:39:14.838Z,100954.28
2019-05-10T21:41:43.757Z,100955.58
2019-05-10T21:44:12.705Z,100961.12
2019-05-10T21:46:41.388Z,100956.20
2019-05-10T21:49:10.921Z,100967.39
2019-05-10T21:51:39.634Z,100964.69
2019-05-10T21:54:09.211Z,100958.60
2019-05-10T21:56:38.548Z,100965.84
2019-05-10T21:59:07.309Z,100967.58
2019-05-10T22:01:36.114Z,100971.34
2019-05-10T22:04:05.062Z,100970.20
2019-05-10T22:06:34.081Z,100971.50
2019-05-10T22:09:05.123Z,100967.17
2019-05-10T22:11:33.793Z,100976.50
2019-05-10T22:14:02.447Z,100967.33
2019-05-10T22:16:31.487Z,100967.33
2019-05-10T22:19:02.180Z,100974.05
2019-05-10T22:21:31.138Z,100973.19
2019-05-10T22:24:00.395Z,100965.30
2019-05-10T22:26:29.308Z,100977.47
2019-05-10T22:28:58.236Z,100970.45
2019-05-10T22:31:27.191Z,100973.91
2019-05-10T22:33:55.914Z,100975.33
2019-05-10T22:36:24.541Z,100980.38
2019-05-10T22:39:06.328Z,100985.13
2019-05-10T22:41:24.166Z,100985.13
2019-05-10T22:43:53.389Z,100982.87
2019-05-10T22:46:22.014Z,100988.49
2019-05-10T22:48:51.276Z,100988.49
2019-05-10T22:51:20.377Z,100993.86
2019-05-10T22:53:59.638Z,100989.32
2019-05-10T22:56:19.381Z,100986.86
2019-05-10T22:58:48.113Z,100986.28
2019-05-10T23:01:17.377Z,100987.45
2019-05-10T23:03:46.017Z,100987.23
2019-05-10T23:06:14.668Z,100987.79
2019-05-10T23:08:43.283Z,100989.39
2019-05-10T23:11:11.887Z,100987.77
2019-05-10T23:13:40.806Z,100999.28
2019-05-10T23:16:09.458Z,101000.22
2019-05-10T23:18:38.377Z,101007.21
2019-05-10T23:21:07.386Z,101002.66
2019-05-10T23:23:36.984Z,101009.17
2019-05-10T23:26:06.060Z,101013.31
2019-05-10T23:28:34.745Z,101014.66
2019-05-10T23:31:03.383Z,101022.89
2019-05-10T23:33:32.351Z,101016.77
2019-05-10T23:36:01.260Z,101013.34
2019-05-10T23:38:30.240Z,101013.34
2019-05-10T23:40:58.872Z,101012.38
2019-05-10T23:43:27.809Z,101023.69
2019-05-10T23:45:56.780Z,101034.60
2019-05-10T23:48:26.009Z,101034.60
2019-05-10T23:50:54.907Z,101037.01
2019-05-10T23:53:23.884Z,101037.01
2019-05-10T23:55:52.875Z,101040.80
2019-05-10T23:58:21.525Z,101042.95
